CPX308 Details

Departure: Theodore Francis Green State Airport (KPVD)
Arrival: Chicago/Rockford International Airport (KRFD) at N/A
Route: BAF HNK NUGNT DJB J60 JOT V171 RFD
Notes:


Current Weather Information
KPVD 171651Z 16007KT 10SM BKN015 BKN022 25/21 A3006 RMK AO2 SLP179 T02500211
KRFD 171654Z 10007KT 10SM FEW040 BKN150 BKN250 24/19 A2991 RMK AO2 SLP124 T02390194